createdAt,value
2018-07-11T00:01:46.251Z,13.50
2018-07-11T00:04:15.527Z,13.40
2018-07-11T00:06:44.701Z,13.30
2018-07-11T00:09:14.489Z,13.20
2018-07-11T00:11:43.806Z,13.20
2018-07-11T00:14:13.279Z,13.20
2018-07-11T00:16:47.852Z,13.20
2018-07-11T00:19:17.060Z,13.10
2018-07-11T00:21:46.640Z,13.10
2018-07-11T00:24:15.879Z,13.20
2018-07-11T00:26:45.342Z,13.20
2018-07-11T00:29:14.603Z,13.10
2018-07-11T00:31:44.692Z,13.20
2018-07-11T00:34:13.954Z,13.20
2018-07-11T00:36:43.285Z,13.20
2018-07-11T00:39:12.606Z,13.20
2018-07-11T00:41:42.012Z,13.20
2018-07-11T00:44:11.277Z,13.20
2018-07-11T00:46:40.870Z,13.20
2018-07-11T00:49:10.067Z,13.10
2018-07-11T00:51:39.549Z,13.10
2018-07-11T00:54:09.906Z,13.10
2018-07-11T00:56:40.268Z,13.10
2018-07-11T00:59:11.991Z,13.00
2018-07-11T01:01:43.010Z,13.10
2018-07-11T01:04:18.336Z,13.10
2018-07-11T01:06:47.804Z,13.00
2018-07-11T01:09:17.113Z,12.90
2018-07-11T01:11:46.522Z,12.90
2018-07-11T01:14:16.265Z,12.90
2018-07-11T01:16:45.522Z,12.90
2018-07-11T01:19:17.744Z,12.90
2018-07-11T01:21:52.839Z,12.90
2018-07-11T01:24:22.040Z,12.90
2018-07-11T01:26:51.413Z,12.90
2018-07-11T01:29:20.587Z,12.90
2018-07-11T01:31:50.908Z,12.90
2018-07-11T01:34:21.250Z,12.90
2018-07-11T01:36:51.365Z,13.00
2018-07-11T01:39:20.692Z,13.10
2018-07-11T01:41:54.840Z,13.20
2018-07-11T01:44:24.523Z,13.30
2018-07-11T01:46:53.892Z,13.40
2018-07-11T01:49:23.535Z,13.50
2018-07-11T01:52:03.898Z,13.60
2018-07-11T01:54:33.148Z,13.60
2018-07-11T01:57:02.411Z,13.70
2018-07-11T01:59:35.226Z,13.70
2018-07-11T02:02:05.369Z,13.80
2018-07-11T02:04:36.064Z,13.80
2018-07-11T02:07:05.401Z,13.90
2018-07-11T02:09:34.931Z,13.90
2018-07-11T02:12:04.807Z,13.90
2018-07-11T02:14:35.089Z,14.00
2018-07-11T02:17:04.849Z,14.00
2018-07-11T02:19:36.735Z,14.00
2018-07-11T02:22:06.157Z,14.00
2018-07-11T02:24:35.351Z,14.00
2018-07-11T02:27:04.646Z,14.00
2018-07-11T02:29:33.925Z,14.00
2018-07-11T02:32:07.236Z,14.00
2018-07-11T02:34:44.662Z,14.00
2018-07-11T02:37:13.925Z,14.10
2018-07-11T02:42:54.883Z,14.20
2018-07-11T02:45:25.131Z,14.20
2018-07-11T02:48:06.796Z,14.20
2018-07-11T02:50:50.245Z,14.20
2018-07-11T02:53:23.296Z,14.20
2018-07-11T02:55:53.862Z,14.10
2018-07-11T02:58:23.184Z,14.20
2018-07-11T03:00:52.550Z,14.10
2018-07-11T03:03:22.069Z,14.10
2018-07-11T03:05:52.169Z,14.20
2018-07-11T03:08:21.458Z,14.20
2018-07-11T03:10:51.609Z,14.30
2018-07-11T03:13:22.158Z,14.30
2018-07-11T03:15:52.665Z,14.30
2018-07-11T03:18:22.599Z,14.40
2018-07-11T03:20:52.483Z,14.40
2018-07-11T03:23:21.845Z,14.40
2018-07-11T03:25:51.384Z,14.50
2018-07-11T03:28:20.816Z,14.50
2018-07-11T03:30:50.265Z,14.40
2018-07-11T03:33:19.971Z,14.40
2018-07-11T03:35:50.792Z,14.40
2018-07-11T03:38:20.724Z,14.30
2018-07-11T03:40:58.682Z,14.30
2018-07-11T03:43:27.910Z,14.30
2018-07-11T03:45:58.194Z,14.30
2018-07-11T03:48:28.278Z,14.20
2018-07-11T03:50:57.851Z,14.20
2018-07-11T03:53:27.235Z,14.20
2018-07-11T03:55:57.110Z,14.20
2018-07-11T03:58:27.241Z,14.20
2018-07-11T04:00:58.277Z,14.20
2018-07-11T04:03:27.622Z,14.30
2018-07-11T04:05:58.835Z,14.30
2018-07-11T04:08:29.026Z,14.30
2018-07-11T04:11:00.078Z,14.30
2018-07-11T04:13:30.254Z,14.30
2018-07-11T04:16:00.222Z,14.30
2018-07-11T04:18:30.417Z,14.30
2018-07-11T04:21:01.872Z,14.40
2018-07-11T04:23:31.646Z,14.40
2018-07-11T04:26:01.985Z,14.40
2018-07-11T04:28:31.234Z,14.40
2018-07-11T04:31:01.920Z,14.40
2018-07-11T04:33:31.626Z,14.50
2018-07-11T04:36:00.872Z,14.50
2018-07-11T04:38:30.867Z,14.60
2018-07-11T04:43:28.958Z,14.70
2018-07-11T04:45:59.635Z,14.80
2018-07-11T04:48:29.858Z,14.80
2018-07-11T04:51:00.447Z,14.80
2018-07-11T04:53:29.711Z,14.90
2018-07-11T04:56:03.374Z,14.90
2018-07-11T04:58:33.162Z,15.00
2018-07-11T05:01:02.873Z,15.10
2018-07-11T05:03:32.115Z,15.10
2018-07-11T05:06:01.416Z,15.20
2018-07-11T05:08:30.919Z,15.20
2018-07-11T05:11:00.259Z,15.30
2018-07-11T05:13:30.379Z,15.40
2018-07-11T05:16:00.403Z,15.50
2018-07-11T05:18:30.312Z,15.50
2018-07-11T05:20:59.624Z,15.60
2018-07-11T05:23:29.144Z,15.60
2018-07-11T05:25:59.240Z,15.60
2018-07-11T05:28:28.995Z,15.70
2018-07-11T05:30:58.636Z,15.80
2018-07-11T05:33:28.350Z,15.90
2018-07-11T05:35:57.542Z,15.90
2018-07-11T05:38:31.239Z,15.90
2018-07-11T05:41:01.252Z,15.90
2018-07-11T05:43:33.296Z,16.00
2018-07-11T05:46:02.825Z,16.00
2018-07-11T05:48:32.493Z,16.10
2018-07-11T05:51:02.218Z,16.20
2018-07-11T05:53:31.548Z,16.20
2018-07-11T05:56:00.766Z,16.20
2018-07-11T05:58:33.713Z,16.20
2018-07-11T06:01:05.552Z,16.20
2018-07-11T06:03:34.741Z,16.30
2018-07-11T06:06:04.032Z,16.30
2018-07-11T06:11:03.602Z,16.30
2018-07-11T06:13:33.008Z,16.30
2018-07-11T06:16:02.275Z,16.30
2018-07-11T06:18:31.490Z,16.40
2018-07-11T06:21:02.465Z,16.40
2018-07-11T06:23:35.885Z,16.50
2018-07-11T06:26:06.951Z,16.60
2018-07-11T06:28:37.751Z,16.70
2018-07-11T06:31:08.558Z,16.80
2018-07-11T06:33:37.849Z,16.80
2018-07-11T06:36:07.466Z,16.80
2018-07-11T06:38:38.972Z,16.70
2018-07-11T06:41:08.420Z,16.70
2018-07-11T06:43:37.879Z,16.70
2018-07-11T06:46:07.998Z,16.60
2018-07-11T06:48:39.506Z,16.50
2018-07-11T06:51:11.610Z,16.40
2018-07-11T06:53:41.161Z,16.30
2018-07-11T06:56:10.385Z,16.20
2018-07-11T06:58:42.941Z,16.30
2018-07-11T07:01:16.899Z,16.30
2018-07-11T07:03:47.367Z,16.30
2018-07-11T07:06:16.630Z,16.20
2018-07-11T07:08:45.967Z,16.20
2018-07-11T07:11:16.379Z,16.50
2018-07-11T07:13:46.545Z,16.70
2018-07-11T07:16:15.980Z,16.70
2018-07-11T07:18:45.400Z,16.70
2018-07-11T07:21:18.605Z,16.70
2018-07-11T07:23:47.860Z,16.80
2018-07-11T07:26:17.140Z,17.00
2018-07-11T07:28:46.535Z,17.00
2018-07-11T07:31:15.970Z,17.00
2018-07-11T07:33:45.210Z,17.00
2018-07-11T07:36:15.054Z,17.00
2018-07-11T07:38:45.441Z,16.90
2018-07-11T07:41:14.863Z,16.90
2018-07-11T07:43:44.658Z,16.90
2018-07-11T07:46:14.250Z,16.90
2018-07-11T07:48:43.600Z,17.10
2018-07-11T07:51:13.033Z,17.40
2018-07-11T07:53:42.402Z,17.60
2018-07-11T07:56:13.663Z,17.90
2018-07-11T07:58:43.028Z,18.00
2018-07-11T08:01:13.218Z,17.90
2018-07-11T08:03:42.466Z,17.90
2018-07-11T08:06:12.260Z,18.00
2018-07-11T08:08:43.226Z,18.00
2018-07-11T08:11:13.767Z,18.10
2018-07-11T08:13:43.117Z,18.20
2018-07-11T08:16:12.326Z,18.30
2018-07-11T08:18:41.569Z,18.40
2018-07-11T08:21:10.966Z,18.30
2018-07-11T08:23:51.256Z,18.10
2018-07-11T08:26:31.581Z,18.00
2018-07-11T08:32:18.679Z,17.80
2018-07-11T08:34:59.762Z,17.70
2018-07-11T08:39:48.095Z,18.00
2018-07-11T08:42:30.376Z,18.30
2018-07-11T08:47:16.202Z,18.60
2018-07-11T08:50:56.284Z,18.40
2018-07-11T08:53:50.250Z,18.20
2018-07-11T08:57:33.779Z,18.10
2018-07-11T09:00:29.203Z,18.10
2018-07-11T09:03:13.007Z,18.30
2018-07-11T09:07:55.876Z,18.40
2018-07-11T09:10:40.031Z,18.60
2018-07-11T09:15:27.140Z,18.70
2018-07-11T09:18:10.779Z,18.70
2018-07-11T09:20:50.138Z,18.50
2018-07-11T09:24:32.927Z,18.40
2018-07-11T09:27:02.138Z,18.40
2018-07-11T09:32:00.602Z,18.70
2018-07-11T09:34:29.829Z,18.70
2018-07-11T09:36:59.292Z,18.60
2018-07-11T09:39:28.536Z,18.60
2018-07-11T09:41:57.818Z,18.70
2018-07-11T09:44:27.117Z,18.80
2018-07-11T09:46:56.831Z,18.90
2018-07-11T09:49:27.294Z,19.10
2018-07-11T09:51:56.933Z,19.30
2018-07-11T09:54:26.169Z,19.30
2018-07-11T09:56:55.452Z,19.20
2018-07-11T09:59:25.155Z,19.20
2018-07-11T10:01:54.952Z,19.00
2018-07-11T10:04:27.407Z,19.10
2018-07-11T10:06:57.242Z,19.20
2018-07-11T10:09:31.465Z,19.40
2018-07-11T10:12:01.647Z,19.50
2018-07-11T10:14:33.805Z,19.70
2018-07-11T10:17:03.685Z,19.60
2018-07-11T10:19:33.830Z,19.70
2018-07-11T10:22:03.304Z,19.60
2018-07-11T10:24:32.545Z,19.50
2018-07-11T10:27:02.117Z,19.50
2018-07-11T10:29:31.835Z,19.50
2018-07-11T10:32:01.915Z,19.50
2018-07-11T10:34:31.098Z,19.50
2018-07-11T10:37:01.407Z,19.50
2018-07-11T10:39:30.689Z,19.40
2018-07-11T10:42:03.210Z,19.40
2018-07-11T10:44:33.402Z,19.30
2018-07-11T10:47:13.320Z,19.30
2018-07-11T10:49:44.424Z,19.40
2018-07-11T10:52:14.260Z,19.60
2018-07-11T10:54:43.479Z,19.50
2018-07-11T10:57:13.307Z,19.30
2018-07-11T10:59:42.588Z,19.30
2018-07-11T11:02:18.142Z,19.50
2018-07-11T11:04:48.367Z,19.60
2018-07-11T11:07:18.581Z,19.70
2018-07-11T11:09:47.827Z,19.70
2018-07-11T11:12:18.486Z,19.60
2018-07-11T11:14:47.793Z,19.70
2018-07-11T11:17:19.982Z,19.60
2018-07-11T11:19:49.686Z,19.60
2018-07-11T11:22:18.967Z,19.60
2018-07-11T11:24:48.509Z,19.50
2018-07-11T11:27:18.353Z,19.50
2018-07-11T11:29:52.287Z,19.40
2018-07-11T11:32:26.717Z,19.20
2018-07-11T11:34:55.979Z,19.00
2018-07-11T11:37:25.253Z,18.80
2018-07-11T11:39:54.652Z,18.80
2018-07-11T11:42:28.223Z,18.70
2018-07-11T11:44:59.318Z,18.70
2018-07-11T11:47:28.976Z,18.70
2018-07-11T11:49:58.691Z,18.80
2018-07-11T11:52:29.879Z,19.00
2018-07-11T11:54:59.825Z,19.10
2018-07-11T11:57:29.593Z,19.30
2018-07-11T12:00:01.005Z,19.50
2018-07-11T12:02:32.424Z,19.90
2018-07-11T12:05:09.949Z,20.00
2018-07-11T12:07:41.704Z,19.90
2018-07-11T12:10:11.076Z,19.90
2018-07-11T12:12:40.437Z,19.90
2018-07-11T12:15:11.663Z,20.00
2018-07-11T12:17:41.200Z,20.10
2018-07-11T12:20:18.423Z,20.10
2018-07-11T12:22:48.337Z,20.00
2018-07-11T12:25:23.847Z,19.60
2018-07-11T12:27:54.817Z,19.20
2018-07-11T12:30:28.216Z,19.20
2018-07-11T12:32:58.502Z,18.90
2018-07-11T12:35:29.736Z,18.60
2018-07-11T12:38:02.810Z,18.60
2018-07-11T12:40:33.172Z,18.40
2018-07-11T12:43:02.605Z,18.30
2018-07-11T12:45:32.240Z,18.30
2018-07-11T12:48:09.365Z,18.20
2018-07-11T12:50:39.850Z,18.10
2018-07-11T12:53:09.824Z,18.30
2018-07-11T12:55:39.129Z,18.60
2018-07-11T12:58:09.593Z,18.80
2018-07-11T13:00:39.196Z,19.10
2018-07-11T13:03:08.546Z,19.30
2018-07-11T13:05:37.790Z,19.50
2018-07-11T13:08:08.959Z,19.70
2018-07-11T13:10:38.855Z,19.70
2018-07-11T13:13:08.109Z,19.70
2018-07-11T13:15:38.114Z,19.80
2018-07-11T13:18:07.426Z,19.90
2018-07-11T13:20:36.837Z,20.00
2018-07-11T13:23:06.326Z,20.20
2018-07-11T13:25:37.115Z,20.50
2018-07-11T13:28:06.380Z,20.70
2018-07-11T13:30:36.708Z,20.50
2018-07-11T13:33:12.686Z,20.80
2018-07-11T13:35:43.485Z,21.00
2018-07-11T13:38:14.284Z,21.50
2018-07-11T13:40:44.679Z,21.70
2018-07-11T13:43:15.308Z,21.70
2018-07-11T13:45:46.669Z,21.60
2018-07-11T13:48:18.652Z,21.30
2018-07-11T13:50:51.208Z,21.10
2018-07-11T13:53:20.612Z,20.90
2018-07-11T13:55:58.796Z,20.80
2018-07-11T13:58:31.271Z,20.90
2018-07-11T14:01:02.257Z,20.90
2018-07-11T14:03:32.489Z,20.90
2018-07-11T14:06:09.179Z,21.10
2018-07-11T14:08:42.600Z,21.10
2018-07-11T14:11:12.375Z,21.10
2018-07-11T14:13:43.533Z,21.00
2018-07-11T14:16:13.556Z,21.30
2018-07-11T14:18:43.290Z,21.60
2018-07-11T14:23:48.970Z,22.30
2018-07-11T14:26:22.510Z,22.40
2018-07-11T14:28:53.990Z,23.90
2018-07-11T14:31:39.041Z,24.80
2018-07-11T14:34:09.692Z,25.40
2018-07-11T14:36:40.931Z,25.30
2018-07-11T14:39:10.454Z,25.20
2018-07-11T14:41:39.994Z,25.70
2018-07-11T14:44:09.667Z,25.60
2018-07-11T14:46:38.958Z,25.20
2018-07-11T14:49:09.294Z,25.20
2018-07-11T14:51:39.995Z,24.80
2018-07-11T14:54:11.037Z,24.60
2018-07-11T14:56:41.809Z,24.30
2018-07-11T14:59:14.377Z,24.00
2018-07-11T15:01:43.774Z,24.20
2018-07-11T15:04:14.910Z,24.40
2018-07-11T15:06:45.638Z,24.20
2018-07-11T15:09:20.920Z,24.30
2018-07-11T15:11:53.172Z,24.20
2018-07-11T15:14:25.028Z,23.90
2018-07-11T15:16:56.305Z,23.90
2018-07-11T15:19:25.910Z,23.60
2018-07-11T15:21:55.364Z,24.30
2018-07-11T15:24:26.647Z,24.20
2018-07-11T15:27:01.247Z,25.70
2018-07-11T15:29:32.208Z,28.50
2018-07-11T15:32:05.181Z,30.30
2018-07-11T15:34:34.569Z,31.40
2018-07-11T15:37:04.070Z,31.80
2018-07-11T15:39:35.406Z,32.40
2018-07-11T15:42:07.124Z,33.50
2018-07-11T15:44:36.525Z,34.20
2018-07-11T15:47:10.113Z,33.40
2018-07-11T15:49:46.983Z,32.60
2018-07-11T15:52:18.600Z,33.40
2018-07-11T15:54:49.861Z,33.10
2018-07-11T15:57:28.867Z,32.30
2018-07-11T16:00:11.698Z,32.40
2018-07-11T16:02:45.976Z,31.60
2018-07-11T16:05:23.197Z,31.70
2018-07-11T16:07:58.595Z,30.50
2018-07-11T16:13:02.177Z,32.60
2018-07-11T16:15:31.568Z,31.90
2018-07-11T16:18:00.882Z,30.10
2018-07-11T16:20:31.357Z,29.90
2018-07-11T16:23:01.299Z,29.50
2018-07-11T16:25:30.716Z,29.10
2018-07-11T16:28:00.394Z,29.00
2018-07-11T16:30:30.884Z,30.70
2018-07-11T16:33:01.945Z,31.10
2018-07-11T16:35:31.273Z,30.40
2018-07-11T16:38:01.321Z,30.50
2018-07-11T16:40:32.759Z,30.90
2018-07-11T16:43:02.832Z,31.30
2018-07-11T16:45:33.429Z,31.20
2018-07-11T16:48:02.929Z,32.30
2018-07-11T16:50:32.412Z,33.30
2018-07-11T16:53:01.777Z,32.20
2018-07-11T16:55:35.356Z,30.70
2018-07-11T16:58:05.025Z,28.80
2018-07-11T17:00:36.131Z,27.20
2018-07-11T17:03:09.250Z,26.10
2018-07-11T17:06:19.029Z,25.40
2018-07-11T17:08:52.146Z,24.70
2018-07-11T17:11:24.527Z,24.10
2018-07-11T17:13:59.119Z,23.70
2018-07-11T17:16:37.680Z,23.40
2018-07-11T17:19:11.022Z,23.10
2018-07-11T17:21:47.943Z,22.90
2018-07-11T17:24:19.074Z,22.70
2018-07-11T17:29:26.016Z,22.00
2018-07-11T17:32:05.081Z,22.10
2018-07-11T17:34:36.685Z,22.00
2018-07-11T17:37:07.660Z,22.80
2018-07-11T17:39:49.076Z,24.30
2018-07-11T17:42:22.596Z,25.50
2018-07-11T17:45:16.621Z,25.70
2018-07-11T17:49:58.008Z,25.00
2018-07-11T17:52:28.976Z,24.60
2018-07-11T17:55:10.910Z,23.80
2018-07-11T17:57:52.539Z,23.40
2018-07-11T18:00:34.328Z,23.10
2018-07-11T18:03:39.073Z,22.70
2018-07-11T18:06:22.370Z,22.40
2018-07-11T18:08:58.627Z,21.90
2018-07-11T18:11:35.143Z,21.30
2018-07-11T18:14:04.755Z,21.20
2018-07-11T18:16:43.698Z,20.90
2018-07-11T18:19:24.529Z,20.90
2018-07-11T18:22:10.842Z,20.90
2018-07-11T18:26:56.935Z,20.90
2018-07-11T18:29:43.534Z,20.90
2018-07-11T18:32:53.824Z,20.90
2018-07-11T18:36:36.636Z,20.80
2018-07-11T18:39:17.433Z,20.50
2018-07-11T18:44:00.398Z,20.10
2018-07-11T18:46:50.268Z,19.90
2018-07-11T18:51:36.222Z,19.60
2018-07-11T18:54:13.595Z,19.40
2018-07-11T18:57:00.427Z,19.20
2018-07-11T18:59:46.383Z,19.10
2018-07-11T19:03:33.065Z,19.00
2018-07-11T19:07:15.024Z,18.90
2018-07-11T19:09:49.836Z,18.80
2018-07-11T19:12:36.081Z,18.60
2018-07-11T19:15:09.907Z,18.30
2018-07-11T19:17:56.605Z,18.20
2018-07-11T19:21:06.736Z,18.00
2018-07-11T19:23:46.238Z,17.80
2018-07-11T19:27:32.165Z,17.60
2018-07-11T19:30:13.340Z,17.50
2018-07-11T19:32:58.547Z,17.10
2018-07-11T19:37:46.341Z,16.90
2018-07-11T19:40:29.157Z,16.80
2018-07-11T19:43:11.256Z,16.70
2018-07-11T19:45:55.205Z,16.60
2018-07-11T19:48:36.026Z,16.40
2018-07-11T19:51:14.626Z,16.30
2018-07-11T19:56:00.728Z,16.30
2018-07-11T19:58:31.332Z,16.20
2018-07-11T20:01:01.305Z,15.80
2018-07-11T20:03:30.886Z,15.70
2018-07-11T20:06:00.829Z,15.50
2018-07-11T20:08:32.724Z,15.40
2018-07-11T20:11:02.491Z,15.30
2018-07-11T20:13:31.898Z,15.30
2018-07-11T20:16:01.959Z,15.30
2018-07-11T20:18:32.316Z,15.30
2018-07-11T20:21:01.853Z,15.20
2018-07-11T20:26:01.861Z,15.20
2018-07-11T20:28:37.490Z,15.20
2018-07-11T20:31:07.161Z,15.30
2018-07-11T20:33:38.427Z,15.40
2018-07-11T20:36:12.071Z,15.40
2018-07-11T20:38:43.412Z,15.40
2018-07-11T20:41:14.548Z,15.40
2018-07-11T20:43:43.893Z,15.20
2018-07-11T20:46:13.235Z,15.30
2018-07-11T20:48:44.692Z,15.30
2018-07-11T20:51:14.468Z,15.30
2018-07-11T20:53:44.387Z,15.30
2018-07-11T20:56:14.680Z,15.40
2018-07-11T20:58:55.666Z,15.50
2018-07-11T21:01:36.540Z,15.60
2018-07-11T21:06:38.188Z,15.70
2018-07-11T21:10:19.813Z,15.50
2018-07-11T21:15:42.984Z,15.40
2018-07-11T21:19:15.264Z,15.30
2018-07-11T21:21:45.078Z,15.40
2018-07-11T21:24:15.245Z,15.40
2018-07-11T21:26:50.880Z,15.50
2018-07-11T21:29:21.033Z,15.60
2018-07-11T21:31:50.943Z,15.70
2018-07-11T21:34:21.039Z,15.60
2018-07-11T21:36:50.966Z,15.50
2018-07-11T21:39:20.171Z,15.50
2018-07-11T21:41:49.451Z,15.40
2018-07-11T21:44:18.796Z,15.40
2018-07-11T21:46:48.725Z,15.50
2018-07-11T21:49:23.236Z,15.50
2018-07-11T21:51:52.938Z,15.50
2018-07-11T21:54:24.005Z,15.50
2018-07-11T21:56:53.237Z,15.40
2018-07-11T21:59:24.190Z,15.40
2018-07-11T22:01:53.506Z,15.40
2018-07-11T22:04:26.756Z,15.20
2018-07-11T22:06:56.613Z,15.20
2018-07-11T22:09:28.820Z,15.00
2018-07-11T22:11:58.486Z,14.90
2018-07-11T22:14:27.764Z,14.90
2018-07-11T22:16:57.826Z,14.90
2018-07-11T22:19:34.784Z,14.90
2018-07-11T22:22:02.763Z,14.90
2018-07-11T22:24:30.822Z,14.90
2018-07-11T22:26:58.800Z,14.80
2018-07-11T22:29:27.399Z,14.70
2018-07-11T22:31:55.887Z,14.50
2018-07-11T22:34:23.855Z,14.40
2018-07-11T22:36:51.937Z,14.40
2018-07-11T22:41:48.411Z,14.30
2018-07-11T22:44:16.393Z,14.30
2018-07-11T22:46:44.628Z,14.20
2018-07-11T22:49:12.625Z,14.30
2018-07-11T22:51:40.864Z,14.20
2018-07-11T22:54:08.832Z,14.10
2018-07-11T22:56:36.787Z,14.00
2018-07-11T22:59:05.134Z,14.00
2018-07-11T23:01:34.226Z,13.90
2018-07-11T23:04:02.191Z,13.90
2018-07-11T23:06:30.187Z,13.90
2018-07-11T23:08:58.155Z,13.90
2018-07-11T23:11:26.261Z,13.90
2018-07-11T23:13:54.225Z,13.90
2018-07-11T23:16:22.230Z,13.90
2018-07-11T23:18:50.487Z,13.90
2018-07-11T23:21:18.815Z,13.90
2018-07-11T23:23:47.207Z,13.90
2018-07-11T23:26:15.158Z,13.90
2018-07-11T23:28:43.439Z,13.90
2018-07-11T23:31:11.414Z,13.90
2018-07-11T23:33:39.394Z,14.00
2018-07-11T23:36:07.384Z,14.00
2018-07-11T23:38:35.387Z,14.10
2018-07-11T23:41:06.966Z,14.20
2018-07-11T23:43:35.007Z,14.20
2018-07-11T23:46:03.262Z,14.30
2018-07-11T23:48:31.240Z,14.30
2018-07-11T23:50:59.342Z,14.30
2018-07-11T23:53:27.341Z,14.40
2018-07-11T23:55:55.353Z,14.50
2018-07-11T23:58:23.338Z,14.60
